Status Flugplatz

Der Flugplatz ist offen
PPR Regelung ! PJE !!!

123.15 MHz
RWY 05/23

flüger beizli - Öffnungszeiten
Freitag ab 16:00
Samstag +Sonntag ab 11:00
Bei schönem Wetter öffnen wir früher! Tel.: 079 234 07 74

Herzlich willkommen auf der Homepage des Flugplatz Biel-Kappelen

Wir freuen uns über Ihren Besuch auf unserem schönen Flugplatz im Berner Seeland. Ob zu Fuss, per Velo, Motorrad, Auto oder Flugzeug Sie sind uns jederzeit herzlich willkommen. 


 

Wie werde ich Pilot?

Infoabend der Flugschule Seeland für Interessierte.

Freitag, 21. Oktober 2016 20:00 Flugplatz Biel-Kappelen

Anmeldung unter Diese E-Mail-Adresse ist vor Spambots geschützt! Zur Anzeige muss JavaScript eingeschaltet sein!

Die Flugschule Seeland zeigt in einer kurzen Präsentation den Werdegang zum Privatpiloten und beim anschliessenden Apéro können individuelle Fragen eingehend beantwortet werden.
Wir freuen uns auf Deinen Besuch.

 

Wetter Kappelen

 


 

[source: ADDS]
METAR
LSZG 280120Z AUTO 00000KT 0250 FG VV001 09/09 Q1030 =
TAF
SR / SS: 05:27 / 17:16 UTC ( 2016-09-28)

 


 

Besucherzähler

HeuteHeute11
Seit BeginnSeit Beginn72786
Guests 2

Flugplatz Biel-Kappelen LSZP - 123.15MHz - 032 384 46 84

Email: Diese E-Mail-Adresse ist vor Spambots geschützt! Zur Anzeige muss JavaScript eingeschaltet sein!
www.lszp.ch
2013 © by mb

Zum Anfang